createdAt,value
2018-12-11T00:00:20.477Z,5.11
2018-12-11T00:02:48.754Z,5.20
2018-12-11T00:05:17.117Z,5.19
2018-12-11T00:07:45.388Z,5.06
2018-12-11T00:10:13.760Z,5.21
2018-12-11T00:12:42.072Z,5.02
2018-12-11T00:15:10.845Z,5.30
2018-12-11T00:17:39.132Z,5.10
2018-12-11T00:20:07.744Z,5.09
2018-12-11T00:22:36.049Z,5.09
2018-12-11T00:25:04.760Z,5.12
2018-12-11T00:27:33.057Z,4.95
2018-12-11T00:30:01.370Z,5.05
2018-12-11T00:32:29.657Z,4.92
2018-12-11T00:34:57.954Z,4.97
2018-12-11T00:37:26.264Z,5.04
2018-12-11T00:39:54.564Z,5.08
2018-12-11T00:42:22.852Z,4.93
2018-12-11T00:44:51.155Z,4.89
2018-12-11T00:47:20.876Z,4.99
2018-12-11T00:49:49.321Z,4.90
2018-12-11T00:52:17.629Z,4.93
2018-12-11T00:54:45.896Z,4.88
2018-12-11T00:57:14.204Z,4.98
2018-12-11T00:59:42.469Z,4.93
2018-12-11T01:02:10.889Z,5.05
2018-12-11T01:04:39.193Z,4.77
2018-12-11T01:07:07.493Z,4.71
2018-12-11T01:09:36.131Z,4.81
2018-12-11T01:12:04.521Z,4.75
2018-12-11T01:14:32.797Z,4.74
2018-12-11T01:17:01.082Z,4.76
2018-12-11T01:19:29.357Z,4.81
2018-12-11T01:21:57.781Z,4.88
2018-12-11T01:24:26.052Z,4.82
2018-12-11T01:26:54.325Z,4.81
2018-12-11T01:29:22.624Z,4.76
2018-12-11T01:31:50.973Z,4.90
2018-12-11T01:34:19.277Z,4.86
2018-12-11T01:36:47.553Z,4.91
2018-12-11T01:39:15.856Z,4.85
2018-12-11T01:41:44.160Z,4.90
2018-12-11T01:44:12.463Z,4.91
2018-12-11T01:46:40.737Z,4.81
2018-12-11T01:49:09.037Z,4.74
2018-12-11T01:51:37.316Z,4.85
2018-12-11T01:54:05.626Z,4.75
2018-12-11T01:56:33.928Z,4.75
2018-12-11T01:59:02.196Z,4.80
2018-12-11T02:01:30.504Z,4.85
2018-12-11T02:03:58.785Z,4.78
2018-12-11T02:06:27.095Z,4.90
2018-12-11T02:08:55.433Z,4.94
2018-12-11T02:11:23.712Z,4.92
2018-12-11T02:13:52.018Z,4.84
2018-12-11T02:16:20.369Z,4.79
2018-12-11T02:18:48.672Z,4.79
2018-12-11T02:21:16.961Z,5.02
2018-12-11T02:23:45.265Z,4.93
2018-12-11T02:26:14.598Z,4.83
2018-12-11T02:28:42.888Z,4.77
2018-12-11T02:31:11.254Z,4.81
2018-12-11T02:33:39.552Z,4.86
2018-12-11T02:36:07.830Z,4.74
2018-12-11T02:38:36.130Z,4.71
2018-12-11T02:41:04.425Z,4.85
2018-12-11T02:43:32.700Z,4.91
2018-12-11T02:46:01.006Z,4.77
2018-12-11T02:48:29.314Z,4.71
2018-12-11T02:50:57.586Z,4.70
2018-12-11T02:53:25.894Z,4.69
2018-12-11T02:55:54.196Z,4.74
2018-12-11T02:58:22.533Z,4.69
2018-12-11T03:00:50.870Z,4.73
2018-12-11T03:03:19.151Z,4.67
2018-12-11T03:05:47.450Z,4.78
2018-12-11T03:08:15.729Z,4.77
2018-12-11T03:10:44.030Z,4.53
2018-12-11T03:13:12.337Z,4.55
2018-12-11T03:15:40.627Z,4.57
2018-12-11T03:18:08.905Z,4.58
2018-12-11T03:20:37.204Z,4.60
2018-12-11T03:23:05.510Z,4.57
2018-12-11T03:25:33.776Z,4.60
2018-12-11T03:28:02.054Z,4.54
2018-12-11T03:30:30.359Z,4.42
2018-12-11T03:32:58.634Z,4.43
2018-12-11T03:35:27.084Z,4.41
2018-12-11T03:37:55.365Z,4.38
2018-12-11T03:40:23.665Z,4.53
2018-12-11T03:42:51.949Z,4.40
2018-12-11T03:45:20.976Z,4.49
2018-12-11T03:47:49.273Z,4.47
2018-12-11T03:50:17.549Z,4.50
2018-12-11T03:52:45.858Z,4.49
2018-12-11T03:55:14.234Z,4.60
2018-12-11T03:57:42.514Z,4.73
2018-12-11T04:00:11.035Z,4.70
2018-12-11T04:02:39.382Z,4.67
2018-12-11T04:05:07.700Z,4.71
2018-12-11T04:07:35.979Z,4.77
2018-12-11T04:10:06.552Z,4.62
2018-12-11T04:12:35.040Z,4.66
2018-12-11T04:15:04.592Z,4.85
2018-12-11T04:17:32.873Z,4.71
2018-12-11T04:20:01.247Z,4.69
2018-12-11T04:22:30.462Z,4.68
2018-12-11T04:24:58.931Z,4.61
2018-12-11T04:27:27.341Z,4.63
2018-12-11T04:29:55.628Z,4.57
2018-12-11T04:32:23.908Z,4.48
2018-12-11T04:34:52.206Z,4.49
2018-12-11T04:37:20.483Z,4.66
2018-12-11T04:39:48.787Z,4.67
2018-12-11T04:42:17.058Z,4.73
2018-12-11T04:44:45.367Z,4.66
2018-12-11T04:47:13.646Z,4.61
2018-12-11T04:49:42.072Z,4.69
2018-12-11T04:52:10.356Z,4.72
2018-12-11T04:54:38.646Z,4.67
2018-12-11T04:57:06.946Z,4.70
2018-12-11T04:59:35.255Z,4.75
2018-12-11T05:02:04.044Z,4.66
2018-12-11T05:04:32.344Z,4.69
2018-12-11T05:07:00.718Z,4.97
2018-12-11T05:09:28.986Z,4.88
2018-12-11T05:11:57.280Z,4.91
2018-12-11T05:14:25.595Z,5.00
2018-12-11T05:16:53.913Z,4.97
2018-12-11T05:19:22.204Z,5.00
2018-12-11T05:21:50.523Z,4.98
2018-12-11T05:24:18.860Z,4.90
2018-12-11T05:26:47.273Z,4.88
2018-12-11T05:29:15.564Z,5.01
2018-12-11T05:31:43.861Z,4.95
2018-12-11T05:34:12.166Z,4.87
2018-12-11T05:36:40.550Z,4.60
2018-12-11T05:39:08.852Z,4.66
2018-12-11T05:41:37.759Z,4.70
2018-12-11T05:44:06.089Z,4.79
2018-12-11T05:46:34.358Z,4.62
2018-12-11T05:49:02.665Z,4.67
2018-12-11T05:51:31.024Z,4.70
2018-12-11T05:53:59.306Z,4.63
2018-12-11T05:56:27.594Z,4.56
2018-12-11T05:58:55.902Z,4.53
2018-12-11T06:01:24.209Z,4.49
2018-12-11T06:03:52.522Z,4.69
2018-12-11T06:06:20.865Z,4.84
2018-12-11T06:08:49.250Z,4.81
2018-12-11T06:11:17.510Z,4.83
2018-12-11T06:13:45.797Z,4.77
2018-12-11T06:16:14.581Z,4.88
2018-12-11T06:18:42.882Z,4.87
2018-12-11T06:21:11.450Z,4.86
2018-12-11T06:23:39.732Z,4.93
2018-12-11T06:26:08.139Z,4.61
2018-12-11T06:28:36.454Z,4.80
2018-12-11T06:31:04.752Z,4.88
2018-12-11T06:33:33.032Z,4.68
2018-12-11T06:36:01.324Z,4.59
2018-12-11T06:38:29.633Z,4.49
2018-12-11T06:40:57.947Z,4.45
2018-12-11T06:43:26.225Z,4.49
2018-12-11T06:45:54.616Z,4.48
2018-12-11T06:48:22.877Z,4.44
2018-12-11T06:50:51.218Z,4.51
2018-12-11T06:53:19.491Z,4.77
2018-12-11T06:55:47.816Z,4.87
2018-12-11T06:58:16.124Z,4.86
2018-12-11T07:00:44.588Z,4.85
2018-12-11T07:03:12.882Z,4.97
2018-12-11T07:05:41.156Z,4.85
2018-12-11T07:08:11.420Z,4.92
2018-12-11T07:10:39.748Z,4.92
2018-12-11T07:13:08.041Z,4.85
2018-12-11T07:15:36.343Z,4.72
2018-12-11T07:18:04.741Z,4.71
2018-12-11T07:20:33.025Z,4.79
2018-12-11T07:23:01.325Z,4.89
2018-12-11T07:25:29.609Z,4.92
2018-12-11T07:27:57.912Z,4.90
2018-12-11T07:30:26.192Z,4.71
2018-12-11T07:32:54.513Z,4.86
2018-12-11T07:35:22.807Z,4.89
2018-12-11T07:37:51.152Z,4.91
2018-12-11T07:40:19.438Z,4.99
2018-12-11T07:42:47.753Z,4.98
2018-12-11T07:45:16.125Z,4.95
2018-12-11T07:47:44.420Z,5.03
2018-12-11T07:50:12.716Z,5.00
2018-12-11T07:52:41.011Z,5.02
2018-12-11T07:55:09.292Z,5.07
2018-12-11T07:57:37.603Z,5.09
2018-12-11T08:00:07.970Z,5.07
2018-12-11T08:02:36.240Z,5.09
2018-12-11T08:05:05.589Z,5.05
2018-12-11T08:07:33.851Z,5.18
2018-12-11T08:10:02.140Z,5.36
2018-12-11T08:12:30.412Z,5.56
2018-12-11T08:14:58.713Z,5.56
2018-12-11T08:17:27.018Z,5.47
2018-12-11T08:19:55.329Z,5.32
2018-12-11T08:22:23.672Z,5.31
2018-12-11T08:24:52.002Z,5.26
2018-12-11T08:27:20.284Z,5.21
2018-12-11T08:29:48.646Z,5.18
2018-12-11T08:32:16.972Z,5.17
2018-12-11T08:34:45.268Z,5.14
2018-12-11T08:37:13.573Z,5.25
2018-12-11T08:39:41.996Z,5.23
2018-12-11T08:42:10.313Z,5.26
2018-12-11T08:44:38.625Z,5.36
2018-12-11T08:47:07.123Z,5.38
2018-12-11T08:49:35.421Z,5.28
2018-12-11T08:52:03.724Z,5.32
2018-12-11T08:54:32.010Z,5.46
2018-12-11T08:57:00.305Z,5.45
2018-12-11T08:59:28.610Z,5.37
2018-12-11T09:01:56.926Z,5.55
2018-12-11T09:04:25.240Z,5.63
2018-12-11T09:06:53.613Z,5.58
2018-12-11T09:09:21.881Z,5.38
2018-12-11T09:11:50.176Z,5.29
2018-12-11T09:14:18.449Z,5.41
2018-12-11T09:16:46.840Z,5.37
2018-12-11T09:19:15.115Z,5.38
2018-12-11T09:21:43.423Z,5.27
2018-12-11T09:24:11.705Z,5.29
2018-12-11T09:26:39.984Z,5.32
2018-12-11T09:29:08.291Z,5.24
2018-12-11T09:31:36.678Z,5.60
2018-12-11T09:34:04.974Z,5.35
2018-12-11T09:36:33.244Z,5.48
2018-12-11T09:39:01.844Z,5.35
2018-12-11T09:41:30.154Z,5.20
2018-12-11T09:43:58.464Z,5.30
2018-12-11T09:46:27.693Z,5.33
2018-12-11T09:48:55.993Z,5.36
2018-12-11T09:51:24.253Z,5.19
2018-12-11T09:53:52.617Z,5.14
2018-12-11T09:56:20.939Z,5.20
2018-12-11T09:58:49.272Z,5.36
2018-12-11T10:01:17.546Z,6.40
2018-12-11T10:03:45.834Z,8.17
2018-12-11T10:06:14.104Z,9.09
2018-12-11T10:08:42.387Z,9.62
2018-12-11T10:11:10.717Z,8.55
2018-12-11T10:13:39.018Z,7.44
2018-12-11T10:16:07.293Z,6.60
2018-12-11T10:18:35.671Z,6.36
2018-12-11T10:21:03.943Z,6.06
2018-12-11T10:23:32.609Z,5.75
2018-12-11T10:26:01.199Z,5.71
2018-12-11T10:28:29.471Z,5.21
2018-12-11T10:30:57.783Z,5.32
2018-12-11T10:33:26.065Z,4.98
2018-12-11T10:35:54.374Z,5.06
2018-12-11T10:38:22.645Z,5.24
2018-12-11T10:40:50.959Z,5.46
2018-12-11T10:43:19.226Z,5.45
2018-12-11T10:45:47.524Z,5.60
2018-12-11T10:48:15.813Z,5.77
2018-12-11T10:50:44.121Z,5.70
2018-12-11T10:53:12.405Z,5.81
2018-12-11T10:55:40.691Z,5.93
2018-12-11T10:58:08.968Z,5.52
2018-12-11T11:00:42.785Z,5.65
2018-12-11T11:03:11.265Z,5.67
2018-12-11T11:05:39.543Z,5.64
2018-12-11T11:08:07.856Z,5.82
2018-12-11T11:10:36.124Z,5.98
2018-12-11T11:13:04.441Z,5.80
2018-12-11T11:15:32.801Z,5.81
2018-12-11T11:18:02.116Z,5.92
2018-12-11T11:20:30.472Z,5.68
2018-12-11T11:22:58.819Z,5.60
2018-12-11T11:25:27.085Z,5.73
2018-12-11T11:27:55.396Z,5.71
2018-12-11T11:30:23.697Z,5.54
2018-12-11T11:32:51.975Z,5.63
2018-12-11T11:35:20.356Z,5.63
2018-12-11T11:37:48.675Z,5.76
2018-12-11T11:40:16.983Z,5.95
2018-12-11T11:42:45.632Z,6.13
2018-12-11T11:45:14.049Z,6.12
2018-12-11T11:47:42.384Z,6.14
2018-12-11T11:50:12.622Z,6.06
2018-12-11T11:52:40.933Z,6.35
2018-12-11T11:55:09.207Z,6.41
2018-12-11T11:57:38.034Z,6.63
2018-12-11T12:00:09.713Z,6.61
2018-12-11T12:02:38.011Z,6.41
2018-12-11T12:05:06.366Z,6.48
2018-12-11T12:07:34.673Z,6.48
2018-12-11T12:10:03.924Z,6.31
2018-12-11T12:12:32.198Z,6.33
2018-12-11T12:15:00.508Z,6.60
2018-12-11T12:17:28.817Z,6.60
2018-12-11T12:19:57.081Z,6.86
2018-12-11T12:22:25.381Z,6.53
2018-12-11T12:24:53.689Z,6.61
2018-12-11T12:27:21.958Z,6.58
2018-12-11T12:29:50.266Z,6.78
2018-12-11T12:32:18.535Z,6.76
2018-12-11T12:34:47.024Z,7.05
2018-12-11T12:37:15.308Z,6.93
2018-12-11T12:39:43.672Z,6.54
2018-12-11T12:42:11.968Z,6.59
2018-12-11T12:44:40.258Z,6.46
2018-12-11T12:47:08.570Z,6.30
2018-12-11T12:49:36.872Z,6.15
2018-12-11T12:52:05.157Z,6.25
2018-12-11T12:54:33.448Z,6.38
2018-12-11T12:57:01.717Z,6.54
2018-12-11T12:59:30.023Z,6.55
2018-12-11T13:01:58.294Z,6.73
2018-12-11T13:04:26.603Z,6.55
2018-12-11T13:06:54.957Z,6.65
2018-12-11T13:09:23.458Z,6.64
2018-12-11T13:11:52.097Z,6.24
2018-12-11T13:14:20.393Z,6.17
2018-12-11T13:16:49.130Z,6.19
2018-12-11T13:19:17.429Z,6.21
2018-12-11T13:21:45.730Z,6.45
2018-12-11T13:24:14.004Z,6.44
2018-12-11T13:26:42.302Z,6.52
2018-12-11T13:29:10.585Z,6.44
2018-12-11T13:31:38.881Z,6.39
2018-12-11T13:34:07.590Z,6.41
2018-12-11T13:36:35.887Z,6.35
2018-12-11T13:39:06.819Z,6.44
2018-12-11T13:41:35.184Z,6.36
2018-12-11T13:44:03.812Z,6.41
2018-12-11T13:46:32.550Z,6.38
2018-12-11T13:49:00.895Z,6.29
2018-12-11T13:51:29.194Z,6.12
2018-12-11T13:53:57.922Z,5.99
2018-12-11T13:56:26.219Z,5.94
2018-12-11T13:58:54.512Z,5.88
2018-12-11T14:01:22.776Z,5.81
2018-12-11T14:03:51.077Z,5.82
2018-12-11T14:06:19.493Z,5.83
2018-12-11T14:08:48.490Z,5.82
2018-12-11T14:11:16.736Z,5.81
2018-12-11T14:13:45.052Z,5.78
2018-12-11T14:16:13.405Z,5.88
2018-12-11T14:18:41.789Z,5.93
2018-12-11T14:21:10.237Z,6.16
2018-12-11T14:23:38.513Z,6.27
2018-12-11T14:26:06.810Z,6.30
2018-12-11T14:28:35.128Z,6.21
2018-12-11T14:31:03.411Z,6.25
2018-12-11T14:33:31.775Z,6.27
2018-12-11T14:36:00.135Z,6.35
2018-12-11T14:38:28.446Z,6.13
2018-12-11T14:40:56.818Z,5.98
2018-12-11T14:43:25.115Z,6.32
2018-12-11T14:45:53.455Z,7.08
2018-12-11T14:48:21.722Z,7.03
2018-12-11T14:50:50.021Z,6.84
2018-12-11T14:53:18.319Z,7.14
2018-12-11T14:55:46.617Z,7.16
2018-12-11T14:58:14.917Z,6.99
2018-12-11T15:00:43.188Z,6.80
2018-12-11T15:03:11.497Z,6.91
2018-12-11T15:05:40.079Z,6.62
2018-12-11T15:08:08.330Z,6.30
2018-12-11T15:10:36.700Z,6.10
2018-12-11T15:13:05.125Z,5.95
2018-12-11T15:15:33.425Z,5.92
2018-12-11T15:18:02.925Z,5.71
2018-12-11T15:20:31.395Z,5.61
2018-12-11T15:22:59.668Z,5.51
2018-12-11T15:25:27.968Z,5.41
2018-12-11T15:27:56.240Z,5.22
2018-12-11T15:30:24.540Z,5.28
2018-12-11T15:32:52.809Z,5.20
2018-12-11T15:35:21.119Z,5.11
2018-12-11T15:37:49.703Z,4.91
2018-12-11T15:40:18.019Z,4.84
2018-12-11T15:42:46.318Z,4.69
2018-12-11T15:45:14.606Z,4.78
2018-12-11T15:47:43.157Z,4.66
2018-12-11T15:50:11.456Z,4.65
2018-12-11T15:52:39.734Z,4.89
2018-12-11T15:55:08.158Z,5.00
2018-12-11T15:57:36.462Z,4.80
2018-12-11T16:00:08.179Z,5.01
2018-12-11T16:02:36.523Z,5.13
2018-12-11T16:05:05.297Z,5.11
2018-12-11T16:07:33.596Z,5.12
2018-12-11T16:10:01.887Z,4.98
2018-12-11T16:12:30.213Z,5.17
2018-12-11T16:14:58.482Z,5.35
2018-12-11T16:17:26.787Z,5.39
2018-12-11T16:19:55.082Z,5.19
2018-12-11T16:22:23.385Z,5.34
2018-12-11T16:24:52.155Z,5.45
2018-12-11T16:27:20.745Z,5.50
2018-12-11T16:29:49.106Z,5.45
2018-12-11T16:32:17.411Z,5.48
2018-12-11T16:34:46.338Z,5.46
2018-12-11T16:37:14.860Z,5.43
2018-12-11T16:39:43.121Z,5.58
2018-12-11T16:42:11.396Z,5.64
2018-12-11T16:44:39.710Z,5.69
2018-12-11T16:47:07.987Z,5.76
2018-12-11T16:49:36.277Z,5.76
2018-12-11T16:52:04.560Z,5.73
2018-12-11T16:54:32.838Z,5.86
2018-12-11T16:57:01.141Z,5.80
2018-12-11T16:59:29.480Z,5.74
2018-12-11T17:01:57.747Z,5.78
2018-12-11T17:04:26.051Z,5.76
2018-12-11T17:06:54.378Z,5.76
2018-12-11T17:09:22.689Z,5.84
2018-12-11T17:11:51.017Z,5.78
2018-12-11T17:14:19.301Z,5.73
2018-12-11T17:16:47.592Z,5.68
2018-12-11T17:19:15.885Z,5.58
2018-12-11T17:21:47.035Z,5.53
2018-12-11T17:24:14.429Z,5.43
2018-12-11T17:26:42.812Z,5.36
2018-12-11T17:29:11.121Z,5.39
2018-12-11T17:31:39.435Z,5.43
2018-12-11T17:34:07.711Z,5.40
2018-12-11T17:36:36.030Z,5.36
2018-12-11T17:39:07.055Z,5.31
2018-12-11T17:41:35.368Z,5.36
2018-12-11T17:44:03.646Z,5.39
2018-12-11T17:46:31.947Z,5.39
2018-12-11T17:49:00.273Z,5.34
2018-12-11T17:51:28.556Z,5.43
2018-12-11T17:53:57.361Z,5.34
2018-12-11T17:56:25.644Z,5.27
2018-12-11T17:58:53.930Z,5.26
2018-12-11T18:01:24.185Z,5.20
2018-12-11T18:03:52.489Z,5.15
2018-12-11T18:06:20.794Z,5.11
2018-12-11T18:08:49.107Z,5.19
2018-12-11T18:11:17.413Z,5.15
2018-12-11T18:13:45.712Z,5.00
2018-12-11T18:16:13.989Z,5.12
2018-12-11T18:18:42.287Z,5.06
2018-12-11T18:21:10.558Z,5.07
2018-12-11T18:23:38.906Z,5.08
2018-12-11T18:26:07.176Z,4.98
2018-12-11T18:28:35.506Z,4.92
2018-12-11T18:31:03.802Z,4.81
2018-12-11T18:33:32.220Z,4.74
2018-12-11T18:36:00.508Z,4.62
2018-12-11T18:38:28.889Z,4.55
2018-12-11T18:40:57.187Z,4.52
2018-12-11T18:43:25.464Z,4.50
2018-12-11T18:45:53.733Z,4.50
2018-12-11T18:48:22.053Z,4.58
2018-12-11T18:50:50.364Z,4.54
2018-12-11T18:53:18.661Z,4.53
2018-12-11T18:55:46.953Z,4.49
2018-12-11T18:58:15.261Z,4.60
2018-12-11T19:00:43.587Z,4.68
2018-12-11T19:03:11.857Z,4.58
2018-12-11T19:05:40.165Z,4.53
2018-12-11T19:08:08.446Z,4.67
2018-12-11T19:10:36.830Z,4.66
2018-12-11T19:13:05.150Z,4.55
2018-12-11T19:15:33.436Z,4.61
2018-12-11T19:18:01.735Z,4.67
2018-12-11T19:20:30.073Z,4.10
2018-12-11T19:23:02.326Z,4.36
2018-12-11T19:25:30.613Z,4.45
2018-12-11T19:27:58.945Z,4.39
2018-12-11T19:30:27.240Z,4.35
2018-12-11T19:32:55.584Z,4.52
2018-12-11T19:35:23.880Z,4.50
2018-12-11T19:37:52.174Z,4.57
2018-12-11T19:40:20.445Z,4.55
2018-12-11T19:42:48.868Z,4.52
2018-12-11T19:45:17.228Z,4.51
2018-12-11T19:47:45.550Z,4.38
2018-12-11T19:50:13.823Z,4.50
2018-12-11T19:52:42.133Z,4.47
2018-12-11T19:55:10.427Z,4.44
2018-12-11T19:57:38.735Z,4.42
2018-12-11T20:00:09.229Z,4.38
2018-12-11T20:02:37.610Z,4.61
2018-12-11T20:05:07.025Z,4.46
2018-12-11T20:07:35.603Z,4.65
2018-12-11T20:10:11.241Z,4.55
2018-12-11T20:12:39.536Z,4.41
2018-12-11T20:15:07.852Z,4.33
2018-12-11T20:17:36.125Z,4.27
2018-12-11T20:20:06.392Z,4.29
2018-12-11T20:22:34.670Z,4.31
2018-12-11T20:25:03.338Z,4.35
2018-12-11T20:27:31.629Z,4.38
2018-12-11T20:29:59.929Z,4.33
2018-12-11T20:32:28.204Z,4.26
2018-12-11T20:34:56.501Z,4.26
2018-12-11T20:37:24.797Z,4.49
2018-12-11T20:39:53.576Z,4.39
2018-12-11T20:42:21.860Z,4.26
2018-12-11T20:44:50.173Z,4.37
2018-12-11T20:47:18.561Z,4.35
2018-12-11T20:49:46.880Z,4.52
2018-12-11T20:52:15.168Z,4.60
2018-12-11T20:54:43.481Z,4.50
2018-12-11T20:57:11.876Z,4.33
2018-12-11T20:59:40.161Z,4.41
2018-12-11T21:02:08.497Z,4.55
2018-12-11T21:04:36.803Z,4.58
2018-12-11T21:07:05.106Z,4.67
2018-12-11T21:09:33.407Z,4.71
2018-12-11T21:12:01.796Z,4.62
2018-12-11T21:14:30.121Z,4.56
2018-12-11T21:16:58.441Z,4.56
2018-12-11T21:19:26.736Z,4.55
2018-12-11T21:21:55.037Z,4.56
2018-12-11T21:24:24.141Z,4.48
2018-12-11T21:26:53.626Z,4.22
2018-12-11T21:29:22.008Z,3.95
2018-12-11T21:31:50.295Z,3.94
2018-12-11T21:34:18.601Z,3.96
2018-12-11T21:36:46.896Z,4.00
2018-12-11T21:39:15.238Z,4.12
2018-12-11T21:41:43.586Z,4.13
2018-12-11T21:44:11.893Z,4.14
2018-12-11T21:46:40.205Z,4.06
2018-12-11T21:49:08.508Z,4.10
2018-12-11T21:51:36.824Z,4.08
2018-12-11T21:54:05.153Z,4.02
2018-12-11T21:56:33.492Z,3.93
2018-12-11T21:59:01.836Z,3.85
2018-12-11T22:01:30.254Z,3.89
2018-12-11T22:03:58.495Z,3.67
2018-12-11T22:06:26.815Z,3.73
2018-12-11T22:08:55.102Z,3.69
2018-12-11T22:11:23.400Z,3.72
2018-12-11T22:13:51.703Z,3.70
2018-12-11T22:16:20.015Z,3.61
2018-12-11T22:18:48.323Z,3.39
2018-12-11T22:21:16.633Z,3.48
2018-12-11T22:23:44.929Z,3.28
2018-12-11T22:26:13.243Z,3.25
2018-12-11T22:28:41.559Z,3.21
2018-12-11T22:31:09.881Z,3.20
2018-12-11T22:33:38.209Z,3.31
2018-12-11T22:36:06.607Z,3.16
2018-12-11T22:38:34.860Z,3.14
2018-12-11T22:41:03.172Z,3.13
2018-12-11T22:43:31.455Z,3.14
2018-12-11T22:46:00.351Z,3.17
2018-12-11T22:48:29.174Z,3.14
2018-12-11T22:50:57.478Z,3.14
2018-12-11T22:53:25.771Z,3.08
2018-12-11T22:55:54.082Z,3.22
2018-12-11T22:58:22.420Z,3.13
2018-12-11T23:00:50.790Z,3.32
2018-12-11T23:03:19.090Z,3.50
2018-12-11T23:05:47.377Z,3.58
2018-12-11T23:08:15.695Z,3.63
2018-12-11T23:10:43.971Z,3.63
2018-12-11T23:13:12.288Z,3.59
2018-12-11T23:15:40.605Z,3.56
2018-12-11T23:18:09.023Z,3.66
2018-12-11T23:20:37.308Z,3.69
2018-12-11T23:23:05.954Z,3.59
2018-12-11T23:25:34.221Z,3.67
2018-12-11T23:28:02.560Z,3.69
2018-12-11T23:30:30.891Z,3.65
2018-12-11T23:32:59.198Z,3.65
2018-12-11T23:35:27.561Z,3.73
2018-12-11T23:37:55.841Z,3.71
2018-12-11T23:40:24.344Z,3.74
2018-12-11T23:42:52.650Z,3.71
2018-12-11T23:45:20.930Z,3.64
2018-12-11T23:47:49.237Z,3.72
2018-12-11T23:50:17.555Z,3.84
2018-12-11T23:52:45.860Z,3.86
2018-12-11T23:55:14.756Z,3.86
2018-12-11T23:57:43.033Z,3.86
